createdAt,value
2019-06-15T00:01:36.082Z,98.40
2019-06-15T00:06:32.762Z,98.70
2019-06-15T00:11:28.298Z,99.20
2019-06-15T00:16:25.656Z,99.50
2019-06-15T00:21:21.195Z,99.90
2019-06-15T00:26:16.715Z,99.90
2019-06-15T00:31:12.291Z,99.90
2019-06-15T00:36:07.843Z,99.90
2019-06-15T00:41:03.379Z,99.90
2019-06-15T00:45:59.134Z,99.90
2019-06-15T00:50:54.690Z,99.90
2019-06-15T00:55:50.593Z,99.90
2019-06-15T01:00:46.155Z,99.90
2019-06-15T01:05:41.810Z,99.90
2019-06-15T01:10:37.344Z,99.90
2019-06-15T01:15:32.864Z,99.90
2019-06-15T01:20:28.456Z,99.90
2019-06-15T01:25:24.070Z,99.90
2019-06-15T01:30:19.718Z,99.90
2019-06-15T01:35:16.942Z,99.90
2019-06-15T01:40:12.870Z,99.90
2019-06-15T01:45:08.730Z,99.90
2019-06-15T01:50:04.592Z,99.90
2019-06-15T01:55:00.131Z,99.90
2019-06-15T01:59:58.878Z,99.90
2019-06-15T02:04:54.397Z,99.90
2019-06-15T02:09:49.947Z,99.90
2019-06-15T02:14:45.494Z,99.90
2019-06-15T02:19:41.019Z,99.90
2019-06-15T02:24:36.559Z,99.90
2019-06-15T02:29:32.152Z,99.90
2019-06-15T02:34:27.706Z,99.90
2019-06-15T02:39:23.228Z,99.90
2019-06-15T02:44:19.150Z,99.90
2019-06-15T02:49:14.878Z,99.90
2019-06-15T02:54:10.521Z,99.90
2019-06-15T02:59:06.179Z,99.90
2019-06-15T03:04:01.723Z,99.90
2019-06-15T03:08:57.939Z,99.90
2019-06-15T03:13:54.359Z,99.90
2019-06-15T03:18:49.908Z,99.90
2019-06-15T03:23:45.442Z,99.90
2019-06-15T03:28:40.958Z,99.90
2019-06-15T03:33:36.495Z,99.90
2019-06-15T03:38:32.038Z,99.90
2019-06-15T03:43:27.684Z,99.90
2019-06-15T03:48:23.223Z,99.90
2019-06-15T03:53:18.773Z,99.90
2019-06-15T03:58:14.298Z,99.90
2019-06-15T04:03:09.985Z,99.90
2019-06-15T04:08:05.510Z,99.90
2019-06-15T04:13:01.041Z,99.90
2019-06-15T04:17:56.550Z,99.90
2019-06-15T04:22:52.102Z,99.90
2019-06-15T04:27:47.871Z,99.90
2019-06-15T04:32:43.412Z,99.90
2019-06-15T04:37:41.230Z,99.90
2019-06-15T04:42:36.737Z,99.90
2019-06-15T04:47:32.453Z,99.90
2019-06-15T04:52:27.993Z,99.90
2019-06-15T04:57:23.578Z,99.90
2019-06-15T05:02:19.123Z,99.90
2019-06-15T05:07:15.155Z,99.90
2019-06-15T05:12:11.698Z,99.90
2019-06-15T05:17:07.511Z,99.90
2019-06-15T05:22:03.108Z,99.90
2019-06-15T05:27:06.324Z,99.90
2019-06-15T05:31:55.952Z,99.90
2019-06-15T05:36:51.504Z,99.90
2019-06-15T05:41:47.025Z,99.90
2019-06-15T05:46:42.612Z,99.90
2019-06-15T05:51:38.137Z,99.90
2019-06-15T05:56:33.672Z,99.90
2019-06-15T06:01:29.222Z,99.90
2019-06-15T06:06:24.804Z,99.90
2019-06-15T06:11:21.411Z,99.90
2019-06-15T06:16:16.982Z,99.90
2019-06-15T06:21:12.505Z,99.90
2019-06-15T06:26:08.037Z,99.90
2019-06-15T06:31:03.703Z,99.90
2019-06-15T06:35:59.286Z,99.20
2019-06-15T06:40:54.864Z,97.90
2019-06-15T06:45:51.502Z,97.80
2019-06-15T06:50:47.006Z,98.10
2019-06-15T06:55:42.690Z,98.20
2019-06-15T07:00:38.243Z,97.40
2019-06-15T07:05:33.797Z,96.90
2019-06-15T07:10:29.315Z,96.40
2019-06-15T07:15:25.717Z,96.40
2019-06-15T07:20:21.445Z,95.60
2019-06-15T07:25:16.970Z,96.10
2019-06-15T07:30:12.919Z,95.80
2019-06-15T07:35:11.335Z,94.00
2019-06-15T07:40:07.119Z,92.70
2019-06-15T07:45:02.742Z,91.90
2019-06-15T07:49:58.434Z,90.30
2019-06-15T07:54:54.006Z,88.90
2019-06-15T07:59:49.593Z,90.90
2019-06-15T08:04:45.171Z,88.50
2019-06-15T08:09:40.855Z,89.50
2019-06-15T08:14:36.545Z,87.00
2019-06-15T08:19:32.150Z,87.70
2019-06-15T08:24:27.905Z,84.10
2019-06-15T08:29:23.601Z,83.80
2019-06-15T08:34:19.273Z,84.00
2019-06-15T08:39:14.970Z,83.80
2019-06-15T08:44:11.415Z,83.00
2019-06-15T08:49:07.084Z,81.40
2019-06-15T08:54:02.795Z,82.20
2019-06-15T08:58:58.525Z,81.50
2019-06-15T09:03:55.216Z,81.90
2019-06-15T09:08:57.752Z,80.80
2019-06-15T09:13:54.782Z,79.50
2019-06-15T09:18:50.451Z,77.40
2019-06-15T09:23:46.196Z,76.70
2019-06-15T09:28:41.825Z,78.40
2019-06-15T09:33:37.585Z,79.20
2019-06-15T09:38:34.615Z,79.70
2019-06-15T09:43:30.274Z,79.70
2019-06-15T09:48:25.931Z,78.40
2019-06-15T09:53:21.591Z,78.50
2019-06-15T09:58:17.248Z,78.30
2019-06-15T10:03:13.173Z,79.80
2019-06-15T10:08:08.829Z,80.10
2019-06-15T10:13:04.574Z,79.30
2019-06-15T10:18:00.207Z,77.70
2019-06-15T10:22:55.928Z,74.30
2019-06-15T10:27:51.923Z,75.80
2019-06-15T10:32:47.647Z,76.10
2019-06-15T10:37:43.273Z,76.70
2019-06-15T10:42:38.891Z,75.70
2019-06-15T10:47:34.576Z,76.00
2019-06-15T10:52:30.247Z,77.20
2019-06-15T10:57:25.956Z,79.10
2019-06-15T11:02:21.568Z,79.30
2019-06-15T11:07:17.415Z,79.60
2019-06-15T11:12:13.163Z,80.70
2019-06-15T11:17:08.856Z,81.70
2019-06-15T11:22:04.508Z,82.60
2019-06-15T11:27:01.184Z,83.20
2019-06-15T11:31:56.798Z,82.30
2019-06-15T11:36:52.416Z,81.90
2019-06-15T11:41:48.042Z,81.50
2019-06-15T11:46:43.739Z,81.20
2019-06-15T11:51:39.331Z,80.40
2019-06-15T11:56:35.001Z,79.00
2019-06-15T12:01:30.797Z,79.50
2019-06-15T12:06:26.435Z,78.50
2019-06-15T12:11:22.222Z,77.10
2019-06-15T12:16:17.837Z,77.90
2019-06-15T12:21:13.535Z,78.70
2019-06-15T12:26:10.198Z,78.60
2019-06-15T12:31:05.968Z,80.70
2019-06-15T12:36:01.774Z,81.20
2019-06-15T12:40:57.527Z,81.80
2019-06-15T12:45:53.543Z,82.50
2019-06-15T12:50:49.326Z,83.20
2019-06-15T12:55:45.149Z,83.10
2019-06-15T13:00:41.075Z,83.40
2019-06-15T13:05:36.752Z,84.10
2019-06-15T13:10:33.472Z,82.30
2019-06-15T13:15:29.109Z,81.70
2019-06-15T13:20:29.105Z,81.90
2019-06-15T13:25:24.776Z,80.50
2019-06-15T13:30:21.753Z,79.20
2019-06-15T13:35:17.936Z,79.10
2019-06-15T13:40:14.209Z,79.60
2019-06-15T13:45:11.606Z,79.90
2019-06-15T13:50:07.390Z,78.50
2019-06-15T13:55:05.025Z,78.30
2019-06-15T14:00:00.602Z,78.10
2019-06-15T14:04:56.242Z,76.80
2019-06-15T14:09:53.243Z,75.60
2019-06-15T14:14:48.845Z,72.10
2019-06-15T14:19:44.558Z,70.20
2019-06-15T14:24:40.166Z,67.70
2019-06-15T14:29:36.799Z,66.50
2019-06-15T14:34:33.446Z,66.80
2019-06-15T14:39:29.076Z,67.00
2019-06-15T14:44:24.744Z,68.30
2019-06-15T14:49:20.267Z,69.20
2019-06-15T14:54:16.274Z,67.70
2019-06-15T14:59:11.931Z,63.40
2019-06-15T15:04:07.511Z,60.40
2019-06-15T15:09:03.107Z,60.10
2019-06-15T15:14:00.362Z,58.20
2019-06-15T15:18:56.715Z,58.20
2019-06-15T15:23:52.367Z,59.00
2019-06-15T15:28:47.951Z,56.30
2019-06-15T15:33:43.534Z,56.90
2019-06-15T15:38:39.091Z,56.50
2019-06-15T15:43:36.775Z,54.40
2019-06-15T15:48:31.907Z,55.40
2019-06-15T15:53:27.483Z,56.00
2019-06-15T15:58:23.105Z,56.50
2019-06-15T16:03:18.731Z,57.70
2019-06-15T16:08:16.351Z,60.20
2019-06-15T16:13:11.633Z,61.90
2019-06-15T16:23:24.634Z,60.20
2019-06-15T16:28:20.271Z,58.70
2019-06-15T16:33:16.287Z,58.00
2019-06-15T16:38:12.002Z,58.00
2019-06-15T16:43:07.698Z,57.60
2019-06-15T16:48:03.382Z,57.80
2019-06-15T16:52:59.071Z,57.50
2019-06-15T16:57:56.641Z,57.20
2019-06-15T17:02:51.859Z,57.30
2019-06-15T17:07:48.789Z,56.20
2019-06-15T17:12:44.454Z,56.00
2019-06-15T17:17:40.060Z,56.60
2019-06-15T17:22:37.870Z,57.10
2019-06-15T17:27:37.299Z,57.40
2019-06-15T17:32:31.131Z,57.50
2019-06-15T17:37:26.806Z,56.40
2019-06-15T17:42:22.443Z,53.00
2019-06-15T17:47:18.030Z,50.50
2019-06-15T17:52:13.671Z,50.10
2019-06-15T17:57:10.438Z,52.30
2019-06-15T18:02:06.966Z,54.50
2019-06-15T18:07:02.540Z,57.70
2019-06-15T18:11:58.130Z,59.10
2019-06-15T18:16:53.791Z,61.20
2019-06-15T18:21:49.368Z,62.90
2019-06-15T18:26:47.186Z,65.60
2019-06-15T18:31:42.204Z,67.60
2019-06-15T18:36:37.778Z,69.60
2019-06-15T18:41:36.839Z,71.70
2019-06-15T18:46:30.587Z,73.50
2019-06-15T18:51:27.095Z,75.60
2019-06-15T18:56:22.819Z,77.50
2019-06-15T19:01:18.635Z,78.60
2019-06-15T19:06:16.586Z,79.60
2019-06-15T19:11:11.409Z,79.90
2019-06-15T19:16:08.095Z,81.50
2019-06-15T19:21:03.658Z,82.70
2019-06-15T19:25:59.204Z,84.50
2019-06-15T19:30:56.063Z,85.80
2019-06-15T19:35:51.902Z,87.00
2019-06-15T19:40:47.550Z,88.50
2019-06-15T19:45:43.115Z,89.30
2019-06-15T19:50:38.729Z,90.10
2019-06-15T19:55:36.145Z,90.40
2019-06-15T20:00:31.991Z,90.50
2019-06-15T20:05:28.884Z,91.40
2019-06-15T20:10:26.659Z,91.40
2019-06-15T20:15:26.127Z,91.60
2019-06-15T20:20:20.682Z,91.90
2019-06-15T20:25:16.709Z,92.40
2019-06-15T20:30:16.832Z,92.70
2019-06-15T20:35:17.413Z,93.30
2019-06-15T20:40:09.720Z,93.70
2019-06-15T20:45:06.849Z,93.70
2019-06-15T20:50:02.455Z,93.90
2019-06-15T20:54:59.094Z,94.30
2019-06-15T20:59:56.453Z,94.80
2019-06-15T21:04:51.835Z,95.10
2019-06-15T21:09:47.401Z,95.40
2019-06-15T21:14:42.984Z,95.70
2019-06-15T21:19:38.572Z,95.90
2019-06-15T21:24:34.142Z,96.40
2019-06-15T21:29:29.730Z,97.10
2019-06-15T21:34:26.516Z,98.00
2019-06-15T21:39:22.267Z,98.30
2019-06-15T21:44:17.912Z,98.30
2019-06-15T21:49:15.814Z,98.30
2019-06-15T21:54:10.871Z,98.60
2019-06-15T21:59:07.409Z,98.90
2019-06-15T22:04:06.419Z,99.00
2019-06-15T22:09:03.079Z,99.10
2019-06-15T22:13:59.027Z,99.40
2019-06-15T22:18:55.242Z,99.40
2019-06-15T22:23:50.851Z,99.40
2019-06-15T22:28:47.019Z,99.60
2019-06-15T22:33:44.006Z,99.80
2019-06-15T22:38:39.636Z,99.90
2019-06-15T22:43:36.374Z,99.90
2019-06-15T22:48:32.111Z,99.90
2019-06-15T22:53:27.703Z,99.90
2019-06-15T22:58:23.251Z,99.90
2019-06-15T23:03:18.827Z,99.90
2019-06-15T23:08:16.293Z,99.90
2019-06-15T23:13:11.656Z,99.90
2019-06-15T23:18:07.295Z,99.90
2019-06-15T23:23:02.879Z,99.90
2019-06-15T23:27:58.551Z,99.90
2019-06-15T23:32:56.028Z,99.90
2019-06-15T23:37:51.327Z,99.90
2019-06-15T23:42:46.898Z,99.90
2019-06-15T23:47:42.939Z,99.90
2019-06-15T23:52:38.519Z,99.90
2019-06-15T23:57:34.085Z,99.90
